Time;durP1;ratioP1;P1;durP2;ratioP2;P2;SDS_P1;SDS_P2;PMS_P1;PMS_P2;Temp;Humidity;BMP_temperature;BMP_pressure;BME280_temperature;BME280_humidity;BME280_pressure;Samples;Min_cycle;Max_cycle;Signal;HPM_P1;HPM_P2
2023/04/25 00:00:30;;;;;;;2.27;1.30;;;8.90;99.90;;;;;;5131793;27;20972;-52
2023/04/25 00:02:59;;;;;;;1.80;1.47;;;9.00;99.90;;;;;;5131799;27;20521;-53
2023/04/25 00:05:27;;;;;;;1.70;1.30;;;9.00;99.90;;;;;;5130852;27;21041;-51
2023/04/25 00:07:53;;;;;;;2.47;1.30;;;8.70;99.90;;;;;;5134305;27;20555;-51
2023/04/25 00:10:21;;;;;;;2.37;1.43;;;8.40;99.90;;;;;;5134723;27;20517;-52
2023/04/25 00:12:48;;;;;;;2.50;1.30;;;8.30;99.90;;;;;;5134599;27;20438;-52
2023/04/25 00:15:15;;;;;;;1.90;1.60;;;8.40;99.90;;;;;;5135235;27;20538;-52
2023/04/25 00:17:42;;;;;;;2.33;1.93;;;8.50;99.90;;;;;;5134610;27;20525;-52
2023/04/25 00:20:12;;;;;;;2.77;1.77;;;8.40;99.90;;;;;;5134565;27;20526;-51
2023/04/25 00:22:39;;;;;;;2.13;1.70;;;8.60;99.90;;;;;;5134857;27;20521;-50
2023/04/25 00:25:06;;;;;;;3.30;2.90;;;8.60;99.90;;;;;;5134515;27;20914;-52
2023/04/25 00:27:33;;;;;;;1.80;1.40;;;8.60;99.90;;;;;;5134589;27;20566;-52
2023/04/25 00:30:00;;;;;;;3.77;2.13;;;8.60;99.90;;;;;;5134958;27;20481;-50
2023/04/25 00:32:27;;;;;;;1.60;1.50;;;8.70;99.90;;;;;;5134961;27;20466;-52
2023/04/25 00:34:55;;;;;;;2.67;1.40;;;8.60;99.90;;;;;;5134297;27;20470;-54
2023/04/25 00:37:23;;;;;;;3.43;2.33;;;8.60;99.90;;;;;;5134069;27;20445;-52
2023/04/25 00:39:51;;;;;;;2.50;1.97;;;8.60;99.90;;;;;;5134319;27;20526;-52
2023/04/25 00:42:18;;;;;;;2.43;1.30;;;8.50;99.90;;;;;;5133978;27;20547;-52
2023/04/25 00:44:46;;;;;;;1.60;1.37;;;8.60;99.90;;;;;;5134511;27;20529;-52
2023/04/25 00:47:13;;;;;;;2.57;1.67;;;8.60;99.90;;;;;;5133880;27;20497;-53
2023/04/25 00:49:40;;;;;;;4.03;1.50;;;8.60;99.90;;;;;;5134420;27;20465;-52
2023/04/25 00:52:07;;;;;;;1.57;1.27;;;8.50;99.90;;;;;;5134683;27;20474;-52
2023/04/25 00:54:36;;;;;;;2.53;1.70;;;8.40;99.90;;;;;;5134241;27;20444;-50
2023/04/25 00:57:03;;;;;;;1.80;1.27;;;8.20;99.90;;;;;;5134217;27;20548;-52
2023/04/25 00:59:31;;;;;;;1.67;1.20;;;8.10;99.90;;;;;;5133971;27;20478;-53
2023/04/25 01:01:59;;;;;;;1.70;1.40;;;8.20;99.90;;;;;;5134068;27;20446;-52
2023/04/25 01:04:27;;;;;;;1.50;1.27;;;8.40;99.90;;;;;;5134338;27;20442;-54
2023/04/25 01:06:55;;;;;;;3.00;1.50;;;8.40;99.90;;;;;;5133877;27;20511;-53
2023/04/25 01:09:23;;;;;;;2.03;1.37;;;8.50;99.90;;;;;;5133657;27;20446;-53
2023/04/25 01:11:51;;;;;;;1.80;1.70;;;8.30;99.90;;;;;;5133885;27;21086;-51
2023/04/25 01:14:18;;;;;;;4.90;1.90;;;8.30;99.90;;;;;;5133442;27;20972;-52
2023/04/25 01:16:45;;;;;;;2.23;1.97;;;8.40;99.90;;;;;;5134145;27;20513;-51
2023/04/25 01:19:12;;;;;;;2.17;1.53;;;8.50;99.90;;;;;;5132948;27;20829;-52
2023/04/25 01:21:41;;;;;;;2.43;1.60;;;8.40;99.90;;;;;;5133887;27;20461;-53
2023/04/25 01:24:08;;;;;;;1.67;1.57;;;8.50;99.90;;;;;;5133710;27;20478;-52
2023/04/25 01:26:36;;;;;;;4.40;1.73;;;8.50;99.90;;;;;;5133430;27;20458;-51
2023/04/25 01:29:05;;;;;;;1.90;1.50;;;8.50;99.90;;;;;;5133457;27;20561;-51
2023/04/25 01:31:33;;;;;;;1.50;1.10;;;8.40;99.90;;;;;;5133315;27;20533;-52
2023/04/25 01:34:01;;;;;;;1.73;1.63;;;8.30;99.90;;;;;;5134294;27;20517;-52
2023/04/25 01:36:28;;;;;;;2.50;1.63;;;8.40;99.90;;;;;;5133668;27;20508;-52
2023/04/25 01:38:57;;;;;;;1.90;1.67;;;8.50;99.90;;;;;;5133269;27;20468;-53
2023/04/25 01:41:24;;;;;;;1.40;1.20;;;8.40;99.90;;;;;;5132573;27;20470;-51
2023/04/25 01:43:51;;;;;;;1.73;1.60;;;8.20;99.90;;;;;;5133159;27;20468;-51
2023/04/25 01:46:18;;;;;;;2.00;1.43;;;8.30;99.90;;;;;;5133261;27;20513;-52
2023/04/25 01:48:45;;;;;;;4.27;1.70;;;8.40;99.90;;;;;;5133021;27;20566;-52
2023/04/25 01:51:12;;;;;;;2.97;1.70;;;8.50;99.90;;;;;;5132743;27;20525;-52
2023/04/25 01:53:39;;;;;;;1.73;1.50;;;8.40;99.90;;;;;;5133281;27;20531;-50
2023/04/25 01:56:08;;;;;;;2.03;1.67;;;8.20;99.90;;;;;;5133014;27;20885;-53
2023/04/25 01:58:35;;;;;;;2.40;2.10;;;8.10;99.90;;;;;;5133034;27;20466;-51
2023/04/25 02:01:02;;;;;;;2.40;2.20;;;8.10;99.90;;;;;;5132713;27;20532;-51
2023/04/25 02:03:30;;;;;;;1.60;1.50;;;8.30;99.90;;;;;;5132801;27;20469;-52
2023/04/25 02:05:57;;;;;;;1.87;1.73;;;8.30;99.90;;;;;;5133022;27;20497;-54
2023/04/25 02:08:25;;;;;;;2.10;1.80;;;8.40;99.90;;;;;;5132580;27;20532;-52
2023/04/25 02:10:52;;;;;;;1.93;1.70;;;8.50;99.90;;;;;;5131931;27;20941;-52
2023/04/25 02:13:20;;;;;;;2.20;1.97;;;8.50;99.90;;;;;;5132043;27;20465;-52
2023/04/25 02:15:47;;;;;;;2.27;1.90;;;8.60;99.90;;;;;;5132765;27;20568;-53
2023/04/25 02:18:15;;;;;;;2.47;1.80;;;8.00;99.90;;;;;;5132256;27;20955;-51
2023/04/25 02:20:42;;;;;;;2.53;1.97;;;7.80;99.90;;;;;;5132257;27;20478;-51
2023/04/25 02:23:09;;;;;;;1.60;1.50;;;8.00;99.90;;;;;;5132279;27;20517;-53
2023/04/25 02:25:36;;;;;;;2.57;1.97;;;8.30;99.90;;;;;;5132796;27;20893;-52
2023/04/25 02:28:03;;;;;;;1.93;1.73;;;8.40;99.90;;;;;;5132497;27;20516;-53
2023/04/25 02:30:32;;;;;;;2.10;1.50;;;8.50;99.90;;;;;;5130931;27;20462;-53
2023/04/25 02:32:59;;;;;;;1.63;1.47;;;8.50;99.90;;;;;;5131980;27;20465;-51
2023/04/25 02:35:26;;;;;;;2.60;1.50;;;8.50;99.90;;;;;;5132357;27;20991;-53
2023/04/25 02:37:53;;;;;;;1.80;1.53;;;8.40;99.90;;;;;;5132246;27;20465;-52
2023/04/25 02:40:20;;;;;;;1.53;1.27;;;8.50;99.90;;;;;;5132089;27;20525;-52
2023/04/25 02:42:47;;;;;;;2.87;1.40;;;8.50;99.90;;;;;;5131691;27;20460;-51
2023/04/25 02:45:14;;;;;;;2.33;1.83;;;8.50;99.90;;;;;;5132480;27;20542;-52
2023/04/25 02:47:42;;;;;;;2.37;2.17;;;8.70;99.90;;;;;;5130829;27;21035;-53
2023/04/25 02:50:09;;;;;;;2.00;1.80;;;8.70;99.90;;;;;;5132198;27;20482;-52
2023/04/25 02:52:36;;;;;;;2.43;1.80;;;8.50;99.90;;;;;;5132490;27;20453;-52
2023/04/25 02:55:03;;;;;;;3.80;2.50;;;8.50;99.90;;;;;;5131886;27;20496;-53
2023/04/25 02:57:30;;;;;;;2.60;2.17;;;8.40;99.90;;;;;;5131448;27;20465;-54
2023/04/25 02:59:57;;;;;;;2.70;1.93;;;8.40;99.90;;;;;;5130601;27;20861;-52
2023/04/25 03:02:24;;;;;;;2.13;1.93;;;8.30;99.90;;;;;;5131920;27;20495;-52
2023/04/25 03:04:52;;;;;;;2.30;2.10;;;8.20;99.90;;;;;;5131559;27;20452;-51
2023/04/25 03:07:19;;;;;;;2.67;2.10;;;8.40;99.90;;;;;;5131714;27;20875;-52
2023/04/25 03:09:46;;;;;;;2.30;2.00;;;8.40;99.90;;;;;;5131069;27;20515;-53
2023/04/25 03:12:13;;;;;;;3.43;1.90;;;8.40;99.90;;;;;;5131327;27;20533;-53
2023/04/25 03:14:39;;;;;;;2.33;1.80;;;8.50;99.90;;;;;;5129637;27;20486;-53
2023/04/25 03:17:06;;;;;;;1.93;1.73;;;8.40;99.90;;;;;;5131547;27;20466;-51
2023/04/25 03:19:33;;;;;;;3.20;1.73;;;8.00;99.90;;;;;;5131282;27;20545;-51
2023/04/25 03:22:02;;;;;;;3.10;2.20;;;8.10;99.90;;;;;;5131558;27;20470;-52
2023/04/25 03:24:28;;;;;;;1.83;1.73;;;8.30;99.90;;;;;;5130173;27;20514;-52
2023/04/25 03:26:55;;;;;;;1.97;1.77;;;8.30;99.90;;;;;;5130919;27;20497;-51
2023/04/25 03:29:25;;;;;;;2.33;1.80;;;8.30;99.90;;;;;;5129853;27;20556;-54
2023/04/25 03:31:52;;;;;;;2.83;2.50;;;8.20;99.90;;;;;;5130740;27;20458;-52
2023/04/25 03:34:21;;;;;;;2.27;2.07;;;8.10;99.90;;;;;;5130347;27;20499;-52
2023/04/25 03:36:48;;;;;;;2.17;1.90;;;8.10;99.90;;;;;;5130254;27;20457;-53
2023/04/25 03:39:16;;;;;;;2.63;1.73;;;8.00;99.90;;;;;;5129791;27;20521;-54
2023/04/25 03:41:43;;;;;;;5.67;2.17;;;8.20;99.90;;;;;;5132837;27;20483;-54
2023/04/25 03:44:10;;;;;;;2.60;2.40;;;8.10;99.90;;;;;;5135808;27;20956;-50
2023/04/25 03:46:37;;;;;;;2.10;1.87;;;8.20;99.90;;;;;;5135879;27;20502;-53
2023/04/25 03:49:04;;;;;;;2.30;1.77;;;7.80;99.90;;;;;;5135625;27;20560;-53
2023/04/25 03:51:31;;;;;;;5.43;4.20;;;7.90;99.90;;;;;;5135654;27;20442;-52
2023/04/25 03:53:59;;;;;;;3.40;3.10;;;8.00;99.90;;;;;;5135490;27;20434;-52
2023/04/25 03:56:27;;;;;;;3.80;3.40;;;8.10;99.90;;;;;;5135147;27;20462;-53
2023/04/25 03:58:54;;;;;;;2.60;2.40;;;8.20;99.90;;;;;;5135302;27;20495;-53
2023/04/25 04:01:21;;;;;;;4.67;4.27;;;8.20;99.90;;;;;;5135480;27;20516;-52
2023/04/25 04:03:48;;;;;;;7.73;6.83;;;8.20;99.90;;;;;;5135489;27;20530;-52
2023/04/25 04:06:15;;;;;;;4.80;2.20;;;8.20;99.90;;;;;;5135829;27;20533;-52
2023/04/25 04:08:42;;;;;;;2.40;1.67;;;8.20;99.90;;;;;;5135086;27;20955;-53
2023/04/25 04:11:08;;;;;;;2.70;1.93;;;8.10;99.90;;;;;;5135245;27;20470;-53
2023/04/25 04:13:37;;;;;;;4.07;3.27;;;7.90;99.90;;;;;;5134917;27;20482;-53
2023/04/25 04:16:05;;;;;;;3.00;2.70;;;7.90;99.90;;;;;;5134405;27;20493;-52
2023/04/25 04:18:33;;;;;;;2.40;1.67;;;7.90;99.90;;;;;;5134600;27;20841;-52
2023/04/25 04:20:59;;;;;;;2.47;2.07;;;7.80;99.90;;;;;;5134762;27;20511;-52
2023/04/25 04:23:27;;;;;;;2.30;2.07;;;7.90;99.90;;;;;;5134731;27;20465;-53
2023/04/25 04:25:55;;;;;;;3.23;2.53;;;7.70;99.90;;;;;;5135072;27;20465;-52
2023/04/25 04:28:22;;;;;;;2.40;2.07;;;7.90;99.90;;;;;;5135111;27;20473;-53
2023/04/25 04:30:51;;;;;;;2.23;1.83;;;8.20;99.90;;;;;;5135233;27;20924;-50
2023/04/25 04:33:19;;;;;;;3.07;2.30;;;8.30;99.90;;;;;;5135135;27;20448;-53
2023/04/25 04:35:48;;;;;;;4.40;2.70;;;8.30;99.90;;;;;;5135179;27;20468;-53
2023/04/25 04:38:15;;;;;;;3.23;2.80;;;8.30;99.90;;;;;;5134552;27;20444;-51
2023/04/25 04:40:42;;;;;;;2.67;2.10;;;8.40;99.90;;;;;;5132799;27;20434;-52
2023/04/25 04:43:10;;;;;;;8.00;6.50;;;8.20;99.90;;;;;;5133886;27;20487;-54
2023/04/25 04:45:37;;;;;;;5.77;5.30;;;8.10;99.90;;;;;;5134608;27;20511;-53
2023/04/25 04:48:06;;;;;;;7.17;5.00;;;8.20;99.90;;;;;;5134514;27;20446;-53
2023/04/25 04:50:33;;;;;;;5.70;4.77;;;8.20;99.90;;;;;;5134357;27;20521;-53
2023/04/25 04:53:02;;;;;;;3.40;3.10;;;8.00;99.90;;;;;;5132921;27;20517;-52
2023/04/25 04:55:29;;;;;;;4.57;3.93;;;8.10;99.90;;;;;;5134454;27;20541;-51
2023/04/25 04:57:56;;;;;;;3.17;2.57;;;8.10;99.90;;;;;;5134027;27;20525;-51
2023/04/25 05:00:23;;;;;;;4.93;3.30;;;8.20;99.90;;;;;;5134455;27;20478;-53
2023/04/25 05:02:50;;;;;;;3.57;3.27;;;8.20;99.90;;;;;;5133497;27;20477;-53
2023/04/25 05:05:18;;;;;;;3.50;3.20;;;8.00;99.90;;;;;;5131504;27;20562;-51
2023/04/25 05:07:45;;;;;;;5.50;3.97;;;8.10;99.90;;;;;;5132963;27;20714;-53
2023/04/25 05:10:12;;;;;;;3.10;2.70;;;8.20;99.90;;;;;;5133642;27;20556;-52
2023/04/25 05:12:39;;;;;;;3.40;3.10;;;8.30;99.90;;;;;;5133343;27;20521;-54
2023/04/25 05:15:07;;;;;;;4.33;4.00;;;8.30;99.90;;;;;;5133248;27;20538;-54
2023/04/25 05:17:34;;;;;;;3.83;3.53;;;8.30;99.90;;;;;;5134045;27;20446;-52
2023/04/25 05:20:02;;;;;;;3.90;3.57;;;8.40;99.90;;;;;;5130923;27;20450;-55
2023/04/25 05:22:30;;;;;;;3.73;3.43;;;8.40;99.90;;;;;;5133379;27;20534;-50
2023/04/25 05:24:57;;;;;;;3.90;3.40;;;8.30;99.90;;;;;;5131552;27;20462;-55
2023/04/25 05:27:25;;;;;;;6.00;4.30;;;8.40;99.90;;;;;;5131026;27;20887;-53
2023/04/25 05:29:52;;;;;;;4.20;3.80;;;8.40;99.90;;;;;;5131913;27;20565;-51
2023/04/25 05:32:19;;;;;;;4.30;3.90;;;8.40;99.90;;;;;;5130751;27;20438;-51
2023/04/25 05:34:46;;;;;;;6.33;4.40;;;8.20;99.90;;;;;;5133691;27;20477;-52
2023/04/25 05:37:13;;;;;;;4.00;3.13;;;8.20;99.90;;;;;;5133290;27;20528;-53
2023/04/25 05:39:41;;;;;;;4.43;4.00;;;8.30;99.90;;;;;;5133938;27;20442;-52
2023/04/25 05:42:08;;;;;;;3.90;3.60;;;8.30;99.90;;;;;;5134000;27;20474;-52
2023/04/25 05:44:35;;;;;;;4.00;3.70;;;8.40;99.90;;;;;;5133647;27;20534;-52
2023/04/25 05:47:04;;;;;;;4.07;3.67;;;8.50;99.90;;;;;;5133168;27;20519;-51
2023/04/25 05:49:31;;;;;;;4.33;4.03;;;8.40;99.90;;;;;;5132804;27;20476;-53
2023/04/25 05:51:58;;;;;;;5.23;4.50;;;8.50;99.90;;;;;;5133365;27;20525;-52
2023/04/25 05:54:24;;;;;;;5.03;4.33;;;8.40;99.90;;;;;;5133581;27;20470;-51
2023/04/25 05:56:53;;;;;;;4.93;4.00;;;8.50;99.90;;;;;;5133252;27;20498;-54
2023/04/25 05:59:20;;;;;;;4.90;4.37;;;8.50;99.90;;;;;;5133037;27;20525;-52
2023/04/25 06:01:47;;;;;;;10.23;6.13;;;8.40;99.90;;;;;;5132916;27;20474;-52
2023/04/25 06:04:14;;;;;;;7.73;5.23;;;8.40;99.90;;;;;;5132570;27;20813;-52
2023/04/25 06:06:41;;;;;;;7.50;5.93;;;8.50;99.90;;;;;;5132788;27;20500;-53
2023/04/25 06:09:08;;;;;;;5.30;4.80;;;8.40;99.90;;;;;;5132687;27;20564;-52
2023/04/25 06:11:35;;;;;;;5.07;4.57;;;8.40;99.90;;;;;;5133151;27;20522;-52
2023/04/25 06:14:03;;;;;;;5.33;4.83;;;8.40;99.90;;;;;;5132981;27;20820;-52
2023/04/25 06:16:30;;;;;;;6.90;5.40;;;8.40;99.90;;;;;;5132866;27;20541;-52
2023/04/25 06:18:57;;;;;;;8.77;5.20;;;8.60;99.90;;;;;;5131822;27;20517;-51
2023/04/25 06:21:24;;;;;;;7.00;5.43;;;8.60;99.90;;;;;;5131927;27;20525;-52
2023/04/25 06:23:50;;;;;;;5.33;4.80;;;8.60;99.90;;;;;;5132091;27;20520;-53
2023/04/25 06:26:17;;;;;;;9.60;7.70;;;8.50;99.90;;;;;;5132150;27;21037;-51
2023/04/25 06:28:44;;;;;;;12.77;6.40;;;8.50;99.90;;;;;;5132276;27;20502;-50
2023/04/25 06:31:12;;;;;;;4.43;4.03;;;8.40;99.90;;;;;;5131259;27;20439;-53
2023/04/25 06:33:39;;;;;;;7.20;5.30;;;8.40;99.90;;;;;;5132069;27;20530;-52
2023/04/25 06:36:07;;;;;;;6.50;5.10;;;8.20;99.90;;;;;;5132606;27;20470;-52
2023/04/25 06:38:34;;;;;;;5.13;4.40;;;8.00;99.90;;;;;;5131121;27;20466;-53
2023/04/25 06:41:01;;;;;;;3.67;3.37;;;7.80;99.90;;;;;;5132089;27;20528;-52
2023/04/25 06:43:28;;;;;;;4.40;3.93;;;7.90;99.90;;;;;;5132778;27;20442;-52
2023/04/25 06:45:55;;;;;;;7.60;4.87;;;8.00;99.90;;;;;;5131728;27;20465;-53
2023/04/25 06:48:23;;;;;;;6.33;5.10;;;8.10;99.90;;;;;;5132069;27;21013;-53
2023/04/25 06:50:50;;;;;;;7.30;4.70;;;8.40;99.90;;;;;;5132227;27;20505;-52
2023/04/25 06:53:18;;;;;;;8.87;6.17;;;8.50;99.90;;;;;;5132142;27;20462;-53
2023/04/25 06:55:45;;;;;;;5.40;4.90;;;8.50;99.90;;;;;;5131911;27;20510;-52
2023/04/25 06:58:12;;;;;;;7.67;5.27;;;8.70;99.90;;;;;;5132484;27;20524;-52
2023/04/25 07:00:39;;;;;;;6.03;4.60;;;8.80;99.90;;;;;;5132058;27;20521;-52
2023/04/25 07:03:05;;;;;;;6.00;4.67;;;8.90;99.90;;;;;;5131911;27;20481;-52
2023/04/25 07:05:34;;;;;;;6.83;5.40;;;9.00;99.90;;;;;;5131446;27;20541;-52
2023/04/25 07:08:01;;;;;;;5.73;4.30;;;8.60;99.90;;;;;;5131754;27;20528;-52
2023/04/25 07:10:27;;;;;;;4.00;3.60;;;8.40;99.90;;;;;;5131729;27;20987;-52
2023/04/25 07:12:55;;;;;;;4.00;3.40;;;8.40;99.90;;;;;;5131432;27;20533;-52
2023/04/25 07:15:22;;;;;;;3.30;2.80;;;8.40;99.90;;;;;;5131686;27;20454;-52
2023/04/25 07:17:49;;;;;;;4.70;2.90;;;8.50;99.90;;;;;;5131478;27;20528;-52
2023/04/25 07:20:16;;;;;;;3.27;2.97;;;8.60;99.90;;;;;;5131719;27;20447;-53
2023/04/25 07:22:44;;;;;;;3.53;2.13;;;8.70;99.90;;;;;;5131563;27;20529;-52
2023/04/25 07:25:11;;;;;;;3.70;2.90;;;8.80;99.90;;;;;;5131272;27;20554;-51
2023/04/25 07:27:38;;;;;;;3.57;2.90;;;8.90;99.90;;;;;;5131371;27;20525;-53
2023/04/25 07:30:07;;;;;;;4.67;2.90;;;9.00;99.90;;;;;;5131648;27;20879;-52
2023/04/25 07:32:34;;;;;;;2.70;2.50;;;8.90;99.90;;;;;;5131359;27;20438;-52
2023/04/25 07:35:01;;;;;;;3.30;2.50;;;9.10;99.90;;;;;;5117976;22;20492;-54
2023/04/25 07:37:28;;;;;;;2.60;2.40;;;9.10;99.90;;;;;;5066324;28;20454;-55
2023/04/25 07:39:56;;;;;;;4.00;2.60;;;9.20;99.90;;;;;;5069803;28;20516;-55
2023/04/25 07:42:23;;;;;;;3.50;2.43;;;9.30;99.90;;;;;;5070488;28;20472;-56
2023/04/25 07:44:51;;;;;;;3.97;2.00;;;9.10;99.90;;;;;;5069929;28;20460;-55
2023/04/25 07:47:19;;;;;;;1.97;1.70;;;9.00;99.90;;;;;;5070231;28;20464;-55
2023/04/25 07:49:46;;;;;;;2.20;2.00;;;9.00;99.90;;;;;;5070061;28;20479;-54
2023/04/25 07:52:13;;;;;;;3.07;2.30;;;9.00;99.90;;;;;;5069971;28;20584;-55
2023/04/25 07:54:40;;;;;;;2.50;2.30;;;9.10;99.90;;;;;;5068488;28;20535;-56
2023/04/25 07:57:09;;;;;;;3.30;2.40;;;9.10;99.90;;;;;;5069655;28;20523;-55
2023/04/25 07:59:36;;;;;;;4.18;2.10;;;9.10;99.90;;;;;;5070218;28;20528;-54
2023/04/25 08:02:03;;;;;;;2.80;2.50;;;9.20;99.90;;;;;;5070033;28;20527;-57
2023/04/25 08:04:30;;;;;;;3.23;2.90;;;9.10;99.90;;;;;;5068726;28;20877;-57
2023/04/25 08:06:57;;;;;;;4.00;2.17;;;9.10;99.90;;;;;;5069436;28;20533;-55
2023/04/25 08:09:24;;;;;;;2.57;2.37;;;9.20;99.90;;;;;;5069285;28;20555;-55
2023/04/25 08:11:51;;;;;;;3.40;2.10;;;9.10;99.90;;;;;;5070294;28;20507;-54
2023/04/25 08:14:19;;;;;;;3.57;2.30;;;9.10;99.90;;;;;;5070012;28;20492;-55
2023/04/25 08:16:47;;;;;;;3.77;1.93;;;9.00;99.90;;;;;;5068693;28;20440;-54
2023/04/25 08:19:14;;;;;;;2.60;2.27;;;8.80;99.90;;;;;;5069935;28;20453;-53
2023/04/25 08:21:41;;;;;;;2.50;2.17;;;8.40;99.90;;;;;;5069724;28;20533;-53
2023/04/25 08:24:08;;;;;;;2.30;2.10;;;8.40;99.90;;;;;;5070008;28;20496;-53
2023/04/25 08:26:37;;;;;;;2.50;2.30;;;8.50;99.90;;;;;;5069701;28;20478;-54
2023/04/25 08:29:04;;;;;;;3.07;2.27;;;8.20;99.90;;;;;;5073722;28;20498;-52
2023/04/25 08:31:32;;;;;;;3.33;1.77;;;8.20;99.90;;;;;;5073426;28;20808;-52
2023/04/25 08:33:59;;;;;;;2.10;1.70;;;8.10;99.90;;;;;;5073779;28;20504;-54
2023/04/25 08:36:27;;;;;;;2.30;2.10;;;8.10;99.90;;;;;;5074066;28;20545;-54
2023/04/25 08:38:54;;;;;;;1.97;1.67;;;8.20;99.90;;;;;;5072978;28;20494;-54
2023/04/25 08:41:23;;;;;;;2.40;1.60;;;8.20;99.90;;;;;;5073998;28;20871;-55
2023/04/25 08:43:50;;;;;;;1.80;1.67;;;8.20;99.90;;;;;;5077208;28;20450;-56
2023/04/25 08:46:19;;;;;;;2.63;1.70;;;8.20;99.90;;;;;;5093814;28;20534;-55
2023/04/25 08:48:47;;;;;;;2.63;2.10;;;8.30;99.90;;;;;;5093484;28;20522;-56
2023/04/25 08:51:22;;;;;;;2.30;2.10;;;8.30;99.90;;;;;;5094237;28;20558;-55
2023/04/25 08:53:51;;;;;;;2.13;1.80;;;8.40;99.90;;;;;;5093774;28;20479;-54
2023/04/25 08:56:20;;;;;;;1.87;1.67;;;8.30;99.90;;;;;;5093068;28;20445;-55
2023/04/25 08:58:49;;;;;;;1.73;1.43;;;8.30;99.90;;;;;;5094080;28;20454;-54
2023/04/25 09:01:16;;;;;;;2.43;1.87;;;8.20;99.90;;;;;;5093687;28;20869;-54
2023/04/25 09:03:44;;;;;;;2.57;1.63;;;8.30;99.90;;;;;;5093297;28;20435;-54
2023/04/25 09:06:13;;;;;;;2.87;1.70;;;8.40;99.90;;;;;;5092809;28;21003;-54
2023/04/25 09:08:40;;;;;;;1.80;1.40;;;8.50;99.90;;;;;;5093325;28;20479;-56
2023/04/25 09:11:08;;;;;;;1.80;1.50;;;8.70;99.90;;;;;;5092688;28;21062;-55
2023/04/25 09:13:35;;;;;;;1.93;1.47;;;8.90;99.90;;;;;;5093505;28;20439;-54
2023/04/25 09:16:02;;;;;;;3.63;1.83;;;9.20;99.90;;;;;;5093108;28;20447;-54
2023/04/25 09:18:31;;;;;;;1.83;1.40;;;9.30;99.90;;;;;;5092909;28;20484;-54
2023/04/25 09:21:06;;;;;;;2.27;1.40;;;9.30;99.90;;;;;;5092822;28;20926;-55
2023/04/25 09:23:41;;;;;;;1.60;1.20;;;9.50;99.90;;;;;;5093005;28;21001;-55
2023/04/25 09:26:08;;;;;;;4.03;1.77;;;9.70;99.90;;;;;;5092456;28;20436;-56
2023/04/25 09:28:37;;;;;;;2.37;1.57;;;9.70;99.90;;;;;;5092594;28;20443;-55
2023/04/25 09:31:04;;;;;;;1.97;1.27;;;9.90;99.90;;;;;;5091109;28;21160;-54
2023/04/25 09:33:32;;;;;;;2.10;1.30;;;9.70;99.90;;;;;;5092557;28;20440;-55
2023/04/25 09:36:04;;;;;;;2.33;2.13;;;9.70;99.90;;;;;;5092334;28;20711;-54
2023/04/25 09:38:32;;;;;;;2.47;1.63;;;9.70;99.90;;;;;;5090812;28;20864;-55
2023/04/25 09:41:01;;;;;;;2.23;1.40;;;9.90;99.90;;;;;;5092048;28;20774;-55
2023/04/25 09:43:29;;;;;;;1.80;1.43;;;10.00;99.90;;;;;;5092239;28;20439;-55
2023/04/25 09:45:59;;;;;;;1.40;1.17;;;10.10;99.90;;;;;;5092420;28;20559;-55
2023/04/25 09:48:27;;;;;;;2.20;1.40;;;10.10;99.90;;;;;;5092773;28;20440;-55
2023/04/25 09:51:08;;;;;;;2.17;1.60;;;10.00;99.90;;;;;;5092474;28;20510;-54
2023/04/25 09:53:36;;;;;;;2.70;1.50;;;9.80;99.90;;;;;;5091516;28;20534;-56
2023/04/25 09:56:07;;;;;;;2.60;1.50;;;9.70;99.90;;;;;;5091943;28;20479;-55
2023/04/25 09:58:35;;;;;;;2.00;1.53;;;9.90;99.90;;;;;;5091184;28;20462;-56
2023/04/25 10:01:03;;;;;;;1.53;1.23;;;10.00;99.90;;;;;;5082729;28;20468;-55
2023/04/25 10:03:32;;;;;;;2.73;1.50;;;10.20;99.90;;;;;;5071593;28;20474;-55
2023/04/25 10:06:01;;;;;;;1.50;1.33;;;10.20;99.90;;;;;;5071564;28;20900;-56
2023/04/25 10:08:32;;;;;;;2.60;1.90;;;10.20;99.90;;;;;;5069889;28;20538;-57
2023/04/25 10:11:01;;;;;;;3.07;1.47;;;10.60;99.90;;;;;;5069270;28;21013;-55
2023/04/25 10:13:30;;;;;;;3.27;1.60;;;10.70;99.90;;;;;;5067476;28;20462;-56
2023/04/25 10:15:58;;;;;;;2.67;1.70;;;10.80;99.90;;;;;;5077300;28;20461;-55
2023/04/25 10:18:26;;;;;;;1.80;1.13;;;10.90;99.90;;;;;;5087773;28;20520;-55
2023/04/25 10:20:55;;;;;;;2.20;1.40;;;10.90;99.90;;;;;;5070634;28;20837;-56
2023/04/25 10:23:22;;;;;;;1.90;1.60;;;10.90;99.90;;;;;;5073338;28;20545;-55
2023/04/25 10:25:50;;;;;;;1.90;1.47;;;10.80;99.90;;;;;;5070107;28;20475;-55
2023/04/25 10:28:17;;;;;;;4.80;1.87;;;10.90;99.90;;;;;;5069990;28;20490;-55
2023/04/25 10:31:01;;;;;;;2.90;1.50;;;11.00;99.90;;;;;;5080810;28;20513;-55
2023/04/25 10:33:34;;;;;;;2.07;1.17;;;11.10;99.90;;;;;;5070370;28;20455;-54
2023/04/25 10:36:10;;;;;;;2.27;1.63;;;11.10;99.90;;;;;;5070132;28;20459;-55
2023/04/25 10:38:37;;;;;;;1.53;1.27;;;11.10;99.90;;;;;;5067699;28;20578;-55
2023/04/25 10:41:05;;;;;;;1.97;1.20;;;11.10;99.90;;;;;;5068369;28;20440;-55
2023/04/25 10:43:38;;;;;;;1.37;1.03;;;11.00;99.90;;;;;;5070474;28;20453;-55
2023/04/25 10:46:16;;;;;;;2.33;1.23;;;11.00;99.90;;;;;;5066464;28;20967;-55
2023/04/25 10:48:48;;;;;;;1.97;1.30;;;11.00;99.90;;;;;;5068223;28;20996;-55
2023/04/25 10:51:21;;;;;;;1.87;1.30;;;11.10;99.90;;;;;;5068225;28;20480;-55
2023/04/25 10:53:57;;;;;;;2.00;1.30;;;11.00;99.90;;;;;;5075306;28;20493;-55
2023/04/25 10:56:26;;;;;;;1.50;1.30;;;11.10;99.90;;;;;;5082812;28;20486;-55
2023/04/25 10:59:03;;;;;;;1.53;1.40;;;11.20;99.90;;;;;;5081025;28;20537;-55
2023/04/25 11:01:37;;;;;;;2.20;1.00;;;11.20;99.90;;;;;;5063205;28;20482;-54
2023/04/25 11:04:04;;;;;;;5.00;1.40;;;11.30;99.90;;;;;;5065075;28;20917;-55
2023/04/25 11:06:44;;;;;;;2.00;1.30;;;11.50;99.90;;;;;;5073899;28;20482;-56
2023/04/25 11:09:13;;;;;;;1.90;1.43;;;11.70;99.90;;;;;;5081314;28;20541;-55
2023/04/25 11:11:40;;;;;;;1.73;1.13;;;11.90;99.90;;;;;;5073150;28;20483;-55
2023/04/25 11:14:07;;;;;;;1.30;0.90;;;11.90;99.90;;;;;;5076122;28;21060;-56
2023/04/25 11:16:36;;;;;;;2.53;1.20;;;11.80;99.90;;;;;;5073222;28;20923;-55
2023/04/25 11:19:03;;;;;;;1.83;1.30;;;12.00;99.90;;;;;;5076253;28;20498;-56
2023/04/25 11:21:31;;;;;;;1.50;1.10;;;12.10;99.90;;;;;;5073175;28;20537;-55
2023/04/25 11:23:58;;;;;;;2.60;1.33;;;11.90;99.90;;;;;;5081124;28;20458;-55
2023/04/25 11:26:25;;;;;;;1.40;1.10;;;12.20;99.90;;;;;;5090476;28;20539;-55
2023/04/25 11:28:52;;;;;;;1.80;1.10;;;12.40;99.90;;;;;;5090741;28;20479;-55
2023/04/25 11:31:22;;;;;;;2.60;1.53;;;12.40;99.90;;;;;;5089370;28;20577;-55
2023/04/25 11:33:51;;;;;;;2.33;1.57;;;12.50;99.90;;;;;;5090893;28;20481;-55
2023/04/25 11:36:18;;;;;;;1.67;1.40;;;12.40;99.90;;;;;;5090090;28;20443;-57
2023/04/25 11:38:45;;;;;;;1.67;1.30;;;12.30;99.90;;;;;;5089907;28;20439;-55
2023/04/25 11:41:12;;;;;;;1.50;1.10;;;12.40;99.90;;;;;;5090533;28;20530;-55
2023/04/25 11:43:39;;;;;;;3.63;0.90;;;12.40;99.90;;;;;;5078484;28;20449;-56
2023/04/25 11:46:08;;;;;;;1.60;1.03;;;12.40;99.90;;;;;;5090472;28;20530;-55
2023/04/25 11:48:38;;;;;;;1.40;0.93;;;12.20;99.90;;;;;;5090580;28;20454;-55
2023/04/25 11:51:07;;;;;;;1.60;1.20;;;12.20;99.90;;;;;;5090457;28;20931;-55
2023/04/25 11:53:34;;;;;;;2.03;1.00;;;12.10;99.90;;;;;;5090242;28;20443;-55
2023/04/25 11:56:01;;;;;;;2.33;1.10;;;12.10;99.90;;;;;;5090563;28;20482;-55
2023/04/25 11:58:28;;;;;;;2.07;1.50;;;12.20;99.90;;;;;;5090112;28;20448;-55
2023/04/25 12:00:58;;;;;;;1.47;1.17;;;12.10;99.90;;;;;;5090374;28;21025;-57
2023/04/25 12:03:27;;;;;;;3.40;1.60;;;12.20;99.90;;;;;;5093237;28;20475;-56
2023/04/25 12:05:53;;;;;;;1.90;1.20;;;12.30;99.90;;;;;;5094214;28;20536;-56
2023/04/25 12:08:22;;;;;;;4.50;1.50;;;12.30;99.90;;;;;;5093814;28;20709;-55
2023/04/25 12:10:49;;;;;;;7.10;3.10;;;12.30;99.90;;;;;;5094255;28;20904;-55
2023/04/25 12:13:21;;;;;;;17.27;11.90;;;12.30;99.90;;;;;;5094032;28;20443;-56
2023/04/25 12:15:48;;;;;;;5.53;4.10;;;12.30;99.90;;;;;;5093975;28;20495;-57
2023/04/25 12:18:16;;;;;;;2.60;2.10;;;12.40;99.90;;;;;;5094082;28;20505;-55
2023/04/25 12:20:43;;;;;;;2.80;1.67;;;12.40;99.90;;;;;;5093908;28;20467;-56
2023/04/25 12:23:11;;;;;;;1.73;1.17;;;12.40;99.90;;;;;;5093721;28;20439;-55
2023/04/25 12:25:41;;;;;;;1.40;0.90;;;12.30;99.90;;;;;;5093614;28;20471;-55
2023/04/25 12:28:13;;;;;;;1.40;1.10;;;12.20;99.90;;;;;;5093765;28;20507;-55
2023/04/25 12:31:00;;;;;;;1.70;1.27;;;12.10;99.90;;;;;;5092995;28;20917;-55
2023/04/25 12:33:28;;;;;;;2.20;1.00;;;11.90;99.90;;;;;;5093655;28;20454;-56
2023/04/25 12:35:55;;;;;;;1.67;1.20;;;11.70;99.90;;;;;;5093572;28;20507;-55
2023/04/25 12:38:29;;;;;;;1.73;1.20;;;11.60;99.90;;;;;;5092793;28;20526;-56
2023/04/25 12:40:57;;;;;;;1.40;1.10;;;11.50;99.90;;;;;;5093223;28;20495;-55
2023/04/25 12:43:24;;;;;;;1.60;1.10;;;11.40;99.90;;;;;;5093694;28;20537;-55
2023/04/25 12:45:52;;;;;;;1.80;1.30;;;11.30;99.90;;;;;;5093623;28;20557;-55
2023/04/25 12:48:20;;;;;;;2.43;2.13;;;11.20;99.90;;;;;;5093516;28;20488;-55
2023/04/25 12:50:48;;;;;;;2.17;1.10;;;11.10;99.90;;;;;;5093444;28;20517;-55
2023/04/25 12:53:15;;;;;;;1.30;0.80;;;10.80;99.90;;;;;;5093247;28;20438;-55
2023/04/25 12:55:42;;;;;;;1.40;1.20;;;10.70;99.90;;;;;;5092850;28;20546;-55
2023/04/25 12:58:11;;;;;;;2.63;1.20;;;9.50;99.90;;;;;;5092772;28;20527;-54